createdAt,value
2023-04-20T00:02:03.095Z,81.93
2023-04-20T00:05:24.854Z,82.18
2023-04-20T00:08:46.679Z,82.87
2023-04-20T00:12:08.820Z,82.43
2023-04-20T00:15:30.388Z,82.67
2023-04-20T00:18:53.781Z,82.90
2023-04-20T00:22:15.627Z,83.37
2023-04-20T00:25:37.593Z,82.79
2023-04-20T00:29:00.199Z,82.82
2023-04-20T00:32:22.001Z,83.15
2023-04-20T00:35:45.202Z,83.69
2023-04-20T00:39:06.741Z,83.48
2023-04-20T00:42:28.526Z,83.48
2023-04-20T00:45:52.066Z,83.33
2023-04-20T00:49:13.572Z,82.81
2023-04-20T00:52:36.852Z,82.82
2023-04-20T00:55:58.504Z,83.31
2023-04-20T00:59:21.210Z,83.08
2023-04-20T01:02:47.565Z,83.08
2023-04-20T01:06:11.049Z,82.97
2023-04-20T01:09:33.792Z,83.59
2023-04-20T01:12:55.733Z,83.10
2023-04-20T01:16:17.258Z,82.79
2023-04-20T01:19:38.627Z,82.91
2023-04-20T01:23:02.015Z,82.70
2023-04-20T01:26:25.479Z,82.85
2023-04-20T01:29:47.725Z,82.94
2023-04-20T01:33:09.048Z,82.71
2023-04-20T01:36:30.963Z,82.63
2023-04-20T01:39:54.720Z,82.49
2023-04-20T01:43:17.162Z,82.81
2023-04-20T01:46:40.897Z,82.99
2023-04-20T01:50:02.588Z,82.74
2023-04-20T01:53:25.380Z,82.54
2023-04-20T01:56:48.395Z,82.98
2023-04-20T02:00:11.748Z,82.79
2023-04-20T02:03:36.639Z,82.55
2023-04-20T02:06:58.205Z,82.62
2023-04-20T02:10:19.909Z,82.29
2023-04-20T02:13:43.002Z,82.58
2023-04-20T02:17:04.760Z,83.16
2023-04-20T02:20:27.252Z,83.03
2023-04-20T02:23:49.617Z,82.85
2023-04-20T02:27:11.320Z,83.20
2023-04-20T02:30:36.145Z,83.58
2023-04-20T02:33:58.472Z,83.42
2023-04-20T02:37:22.615Z,83.71
2023-04-20T02:40:44.253Z,83.31
2023-04-20T02:44:06.807Z,83.48
2023-04-20T02:47:33.071Z,83.43
2023-04-20T02:50:56.497Z,83.36
2023-04-20T02:54:20.604Z,83.14
2023-04-20T02:57:42.683Z,83.75
2023-04-20T03:01:05.128Z,83.73
2023-04-20T03:04:31.135Z,83.57
2023-04-20T03:08:10.722Z,83.72
2023-04-20T03:11:33.176Z,83.44
2023-04-20T03:14:55.611Z,83.93
2023-04-20T03:18:26.388Z,84.23
2023-04-20T03:21:50.101Z,84.47
2023-04-20T03:25:12.006Z,84.32
2023-04-20T03:28:51.209Z,84.49
2023-04-20T03:32:16.999Z,84.20
2023-04-20T03:35:39.462Z,84.23
2023-04-20T03:39:02.476Z,84.20
2023-04-20T03:42:24.619Z,84.32
2023-04-20T03:45:46.876Z,84.23
2023-04-20T03:49:12.047Z,84.35
2023-04-20T03:52:35.545Z,84.91
2023-04-20T03:56:01.848Z,84.78
2023-04-20T03:59:24.972Z,84.93
2023-04-20T04:02:47.423Z,84.66
2023-04-20T04:06:14.268Z,84.87
2023-04-20T04:09:36.108Z,85.22
2023-04-20T04:12:59.989Z,84.91
2023-04-20T04:16:22.230Z,84.96
2023-04-20T04:19:44.766Z,85.15
2023-04-20T04:23:06.847Z,84.99
2023-04-20T04:26:41.291Z,85.01
2023-04-20T04:30:04.573Z,85.20
2023-04-20T04:33:28.063Z,85.44
2023-04-20T04:36:50.281Z,85.45
2023-04-20T04:40:18.251Z,85.78
2023-04-20T04:43:42.272Z,86.25
2023-04-20T04:47:16.032Z,85.97
2023-04-20T04:50:37.978Z,86.46
2023-04-20T04:54:01.886Z,86.10
2023-04-20T04:57:23.164Z,86.87
2023-04-20T05:00:44.559Z,86.27
2023-04-20T05:04:07.911Z,86.61
2023-04-20T05:07:30.015Z,86.22
2023-04-20T05:10:52.005Z,86.53
2023-04-20T05:14:13.843Z,86.04
2023-04-20T05:17:35.851Z,85.41
2023-04-20T05:20:59.006Z,86.28
2023-04-20T05:24:20.606Z,86.23
2023-04-20T05:27:42.457Z,86.58
2023-04-20T05:31:04.072Z,86.28
2023-04-20T05:34:26.156Z,85.98
2023-04-20T05:37:49.629Z,86.74
2023-04-20T05:41:11.518Z,86.85
2023-04-20T05:44:33.950Z,86.76
2023-04-20T05:47:56.877Z,86.58
2023-04-20T05:51:18.455Z,85.98
2023-04-20T05:54:41.744Z,86.33
2023-04-20T05:58:03.622Z,86.11
2023-04-20T06:01:25.498Z,85.58
2023-04-20T06:04:47.506Z,86.10
2023-04-20T06:08:09.247Z,85.55
2023-04-20T06:11:32.938Z,85.83
2023-04-20T06:14:54.927Z,86.23
2023-04-20T06:18:16.473Z,85.73
2023-04-20T06:21:38.054Z,86.04
2023-04-20T06:25:01.410Z,84.81
2023-04-20T06:28:24.853Z,84.50
2023-04-20T06:31:46.428Z,85.10
2023-04-20T06:35:09.139Z,85.14
2023-04-20T06:38:31.413Z,85.87
2023-04-20T06:41:52.880Z,85.73
2023-04-20T06:45:18.279Z,85.45
2023-04-20T06:48:40.384Z,86.07
2023-04-20T06:52:02.062Z,85.56
2023-04-20T06:55:23.859Z,84.69
2023-04-20T06:58:46.116Z,84.88
2023-04-20T07:02:09.648Z,85.02
2023-04-20T07:05:31.635Z,84.81
2023-04-20T07:08:52.961Z,84.63
2023-04-20T07:12:15.825Z,85.82
2023-04-20T07:15:37.312Z,85.15
2023-04-20T07:19:00.628Z,85.09
2023-04-20T07:22:22.536Z,85.31
2023-04-20T07:25:44.060Z,85.66
2023-04-20T07:29:05.684Z,85.51
2023-04-20T07:32:27.478Z,85.67
2023-04-20T07:35:50.789Z,86.16
2023-04-20T07:39:12.470Z,85.51
2023-04-20T07:42:36.806Z,85.57
2023-04-20T07:45:58.248Z,86.06
2023-04-20T07:49:20.431Z,86.16
2023-04-20T07:52:44.471Z,86.52
2023-04-20T07:56:06.608Z,86.75
2023-04-20T07:59:28.340Z,86.90
2023-04-20T08:02:50.422Z,86.38
2023-04-20T08:06:12.086Z,86.76
2023-04-20T08:09:35.214Z,86.47
2023-04-20T08:12:57.335Z,86.45
2023-04-20T08:16:18.809Z,85.77
2023-04-20T08:19:43.705Z,85.98
2023-04-20T08:23:06.588Z,85.96
2023-04-20T08:26:29.908Z,85.90
2023-04-20T08:29:51.830Z,85.60
2023-04-20T08:33:13.543Z,85.99
2023-04-20T08:36:36.154Z,86.34
2023-04-20T08:39:58.604Z,85.55
2023-04-20T08:43:22.517Z,84.30
2023-04-20T08:46:48.540Z,85.16
2023-04-20T08:50:11.271Z,85.67
2023-04-20T08:53:33.839Z,86.18
2023-04-20T08:56:55.915Z,85.99
2023-04-20T09:00:19.312Z,85.57
2023-04-20T09:03:42.870Z,85.82
2023-04-20T09:07:04.900Z,85.82
2023-04-20T09:10:28.040Z,85.92
2023-04-20T09:13:59.839Z,85.57
2023-04-20T09:17:33.931Z,84.28
2023-04-20T09:20:55.643Z,83.32
2023-04-20T09:24:17.475Z,83.13
2023-04-20T09:27:39.003Z,83.20
2023-04-20T09:31:00.494Z,83.58
2023-04-20T09:34:25.808Z,83.04
2023-04-20T09:37:51.157Z,82.79
2023-04-20T09:41:13.623Z,83.45
2023-04-20T09:44:39.055Z,83.38
2023-04-20T09:48:00.885Z,82.37
2023-04-20T09:51:24.304Z,82.81
2023-04-20T09:54:46.523Z,83.27
2023-04-20T09:58:08.397Z,83.04
2023-04-20T10:01:33.737Z,82.45
2023-04-20T10:04:56.510Z,83.13
2023-04-20T10:08:20.826Z,84.23
2023-04-20T10:11:53.345Z,83.42
2023-04-20T10:15:17.262Z,84.07
2023-04-20T10:18:39.835Z,81.75
2023-04-20T10:22:01.620Z,82.26
2023-04-20T10:25:27.600Z,82.56
2023-04-20T10:28:49.682Z,81.73
2023-04-20T10:32:23.124Z,82.21
2023-04-20T10:35:49.290Z,82.25
2023-04-20T10:39:21.756Z,80.99
2023-04-20T10:42:46.521Z,81.08
2023-04-20T10:46:15.786Z,80.90
2023-04-20T10:49:37.207Z,81.19
2023-04-20T10:53:01.783Z,79.50
2023-04-20T10:56:24.020Z,80.40
2023-04-20T10:59:47.690Z,81.56
2023-04-20T11:03:13.648Z,79.86
2023-04-20T11:06:35.912Z,79.50
2023-04-20T11:09:57.959Z,78.33
2023-04-20T11:13:22.335Z,77.23
2023-04-20T11:16:53.355Z,76.38
2023-04-20T11:20:17.704Z,76.17
2023-04-20T11:23:39.724Z,75.05
2023-04-20T11:27:04.894Z,74.60
2023-04-20T11:30:27.625Z,74.17
2023-04-20T11:33:55.769Z,75.01
2023-04-20T11:37:17.782Z,75.26
2023-04-20T11:40:40.080Z,75.58
2023-04-20T11:44:01.819Z,73.31
2023-04-20T11:47:23.485Z,71.54
2023-04-20T11:50:46.760Z,70.38
2023-04-20T11:54:08.522Z,69.85
2023-04-20T11:57:30.420Z,69.87
2023-04-20T12:00:52.351Z,67.29
2023-04-20T12:04:15.421Z,66.72
2023-04-20T12:07:43.756Z,67.22
2023-04-20T12:11:05.932Z,67.20
2023-04-20T12:14:27.847Z,66.62
2023-04-20T12:17:50.104Z,66.19
2023-04-20T12:21:11.773Z,64.64
2023-04-20T12:24:35.527Z,64.35
2023-04-20T12:27:57.555Z,65.16
2023-04-20T12:31:20.543Z,65.14
2023-04-20T12:34:42.539Z,63.71
2023-04-20T12:38:04.857Z,63.39
2023-04-20T12:41:31.238Z,62.71
2023-04-20T12:44:54.729Z,62.80
2023-04-20T12:48:16.842Z,63.95
2023-04-20T12:51:38.618Z,63.68
2023-04-20T12:55:01.471Z,63.29
2023-04-20T12:58:24.929Z,62.82
2023-04-20T13:01:50.546Z,62.86
2023-04-20T13:05:12.754Z,61.82
2023-04-20T13:08:37.290Z,61.46
2023-04-20T13:11:59.210Z,60.11
2023-04-20T13:15:37.564Z,60.76
2023-04-20T13:19:00.683Z,61.04
2023-04-20T13:22:23.020Z,60.94
2023-04-20T13:25:45.909Z,60.96
2023-04-20T13:29:11.228Z,60.61
2023-04-20T13:32:38.310Z,61.33
2023-04-20T13:36:00.987Z,61.16
2023-04-20T13:39:23.072Z,61.40
2023-04-20T13:42:44.818Z,60.90
2023-04-20T13:46:07.110Z,61.78
2023-04-20T13:49:30.327Z,61.41
2023-04-20T13:52:53.042Z,60.95
2023-04-20T13:56:16.570Z,60.90
2023-04-20T13:59:38.146Z,60.89
2023-04-20T14:03:00.336Z,61.01
2023-04-20T14:06:24.416Z,61.30
2023-04-20T14:09:46.802Z,59.69
2023-04-20T14:13:08.435Z,59.26
2023-04-20T14:16:30.147Z,59.21
2023-04-20T14:19:52.143Z,59.16
2023-04-20T14:23:16.285Z,59.13
2023-04-20T14:26:37.920Z,58.89
2023-04-20T14:29:59.880Z,58.30
2023-04-20T14:33:21.799Z,59.03
2023-04-20T14:36:43.992Z,59.22
2023-04-20T14:40:08.892Z,57.73
2023-04-20T14:43:32.398Z,56.68
2023-04-20T14:46:54.648Z,55.87
2023-04-20T14:50:16.595Z,56.15
2023-04-20T14:53:38.501Z,56.04
2023-04-20T14:57:02.652Z,55.30
2023-04-20T15:00:25.001Z,55.76
2023-04-20T15:03:47.261Z,55.78
2023-04-20T15:07:11.791Z,55.76
2023-04-20T15:10:34.425Z,55.92
2023-04-20T15:13:58.820Z,55.12
2023-04-20T15:17:20.497Z,53.98
2023-04-20T15:20:41.900Z,53.55
2023-04-20T15:24:04.055Z,53.31
2023-04-20T15:27:26.150Z,52.48
2023-04-20T15:30:49.133Z,51.30
2023-04-20T15:34:11.252Z,50.76
2023-04-20T15:37:33.255Z,49.80
2023-04-20T15:40:55.428Z,49.53
2023-04-20T15:44:17.369Z,49.75
2023-04-20T15:47:40.807Z,48.87
2023-04-20T15:51:05.836Z,48.90
2023-04-20T15:54:27.640Z,48.90
2023-04-20T15:57:49.604Z,49.89
2023-04-20T16:01:11.020Z,49.23
2023-04-20T16:04:34.256Z,48.49
2023-04-20T16:07:56.713Z,47.76
2023-04-20T16:11:18.391Z,46.42
2023-04-20T16:14:40.127Z,45.77
2023-04-20T16:18:04.874Z,44.62
2023-04-20T16:21:28.289Z,43.97
2023-04-20T16:24:50.072Z,43.93
2023-04-20T16:28:11.941Z,44.03
2023-04-20T16:31:33.455Z,44.66
2023-04-20T16:34:54.877Z,44.05
2023-04-20T16:38:19.140Z,43.60
2023-04-20T16:41:40.895Z,43.73
2023-04-20T16:45:04.655Z,43.38
2023-04-20T16:48:26.452Z,43.24
2023-04-20T16:51:48.372Z,43.35
2023-04-20T16:55:12.198Z,43.27
2023-04-20T16:58:33.892Z,43.49
2023-04-20T17:01:55.839Z,44.19
2023-04-20T17:05:17.598Z,44.26
2023-04-20T17:08:39.579Z,44.70
2023-04-20T17:12:03.115Z,44.69
2023-04-20T17:15:25.006Z,44.65
2023-04-20T17:18:46.272Z,44.92
2023-04-20T17:22:08.363Z,45.23
2023-04-20T17:25:29.705Z,45.74
2023-04-20T17:28:52.426Z,45.88
2023-04-20T17:32:14.144Z,46.21
2023-04-20T17:35:37.395Z,46.73
2023-04-20T17:39:00.376Z,47.54
2023-04-20T17:42:22.040Z,47.72
2023-04-20T17:45:45.833Z,48.04
2023-04-20T17:49:07.338Z,48.23
2023-04-20T17:52:29.129Z,48.96
2023-04-20T17:55:51.298Z,49.63
2023-04-20T17:59:12.954Z,49.80
2023-04-20T18:02:36.276Z,50.65
2023-04-20T18:05:57.783Z,51.06
2023-04-20T18:09:19.620Z,51.76
2023-04-20T18:12:41.391Z,52.40
2023-04-20T18:16:07.114Z,53.25
2023-04-20T18:19:30.397Z,54.16
2023-04-20T18:22:52.016Z,54.93
2023-04-20T18:26:17.519Z,56.40
2023-04-20T18:29:39.339Z,57.53
2023-04-20T18:33:01.378Z,58.18
2023-04-20T18:36:24.590Z,59.34
2023-04-20T18:39:46.969Z,60.15
2023-04-20T18:43:08.519Z,60.21
2023-04-20T18:46:30.452Z,61.87
2023-04-20T18:49:53.209Z,62.42
2023-04-20T18:53:16.308Z,63.24
2023-04-20T18:56:38.800Z,63.87
2023-04-20T19:00:00.525Z,64.36
2023-04-20T19:03:22.502Z,64.44
2023-04-20T19:06:44.446Z,65.11
2023-04-20T19:10:08.915Z,65.79
2023-04-20T19:13:30.974Z,66.85
2023-04-20T19:16:52.889Z,66.74
2023-04-20T19:20:14.893Z,67.40
2023-04-20T19:23:36.664Z,68.36
2023-04-20T19:27:00.755Z,68.24
2023-04-20T19:30:22.519Z,68.97
2023-04-20T19:33:44.288Z,69.04
2023-04-20T19:37:05.948Z,69.00
2023-04-20T19:40:28.300Z,69.65
2023-04-20T19:43:51.536Z,69.91
2023-04-20T19:47:13.014Z,70.08
2023-04-20T19:50:34.645Z,70.56
2023-04-20T19:53:57.155Z,70.39
2023-04-20T19:57:18.415Z,70.49
2023-04-20T20:00:41.542Z,71.36
2023-04-20T20:04:03.344Z,71.41
2023-04-20T20:07:26.134Z,71.92
2023-04-20T20:10:47.959Z,72.24
2023-04-20T20:14:09.334Z,72.58
2023-04-20T20:17:32.660Z,72.45
2023-04-20T20:20:54.538Z,72.85
2023-04-20T20:24:16.361Z,73.00
2023-04-20T20:27:37.744Z,73.79
2023-04-20T20:30:59.742Z,73.84
2023-04-20T20:34:22.976Z,74.30
2023-04-20T20:37:45.477Z,74.56
2023-04-20T20:41:08.043Z,74.83
2023-04-20T20:44:32.891Z,74.55
2023-04-20T20:47:54.894Z,74.37
2023-04-20T20:51:17.868Z,74.72
2023-04-20T20:54:39.556Z,74.67
2023-04-20T20:58:01.894Z,74.64
2023-04-20T21:01:23.826Z,75.11
2023-04-20T21:04:45.376Z,75.04
2023-04-20T21:08:09.975Z,75.13
2023-04-20T21:11:31.880Z,75.31
2023-04-20T21:14:54.033Z,75.94
2023-04-20T21:18:15.624Z,76.24
2023-04-20T21:21:37.350Z,76.24
2023-04-20T21:25:00.481Z,76.75
2023-04-20T21:28:22.556Z,77.39
2023-04-20T21:31:44.460Z,77.68
2023-04-20T21:35:07.025Z,77.43
2023-04-20T21:38:29.014Z,77.52
2023-04-20T21:41:52.038Z,77.49
2023-04-20T21:45:13.593Z,78.14
2023-04-20T21:48:35.375Z,78.07
2023-04-20T21:51:57.795Z,77.71
2023-04-20T21:55:19.248Z,77.71
2023-04-20T21:58:42.431Z,78.34
2023-04-20T22:02:04.008Z,78.54
2023-04-20T22:05:26.260Z,78.41
2023-04-20T22:08:47.870Z,77.96
2023-04-20T22:12:10.109Z,78.19
2023-04-20T22:15:33.677Z,78.22
2023-04-20T22:18:55.408Z,78.24
2023-04-20T22:22:16.812Z,77.86
2023-04-20T22:25:38.876Z,78.17
2023-04-20T22:29:00.376Z,77.94
2023-04-20T22:32:23.291Z,78.16
2023-04-20T22:35:45.842Z,78.66
2023-04-20T22:39:07.662Z,78.41
2023-04-20T22:42:29.575Z,78.68
2023-04-20T22:45:52.023Z,78.86
2023-04-20T22:49:15.645Z,78.72
2023-04-20T22:52:38.511Z,78.57
2023-04-20T22:56:07.669Z,78.44
2023-04-20T22:59:29.904Z,78.62
2023-04-20T23:02:52.775Z,78.84
2023-04-20T23:06:18.784Z,78.93
2023-04-20T23:09:42.689Z,79.07
2023-04-20T23:13:04.999Z,79.14
2023-04-20T23:16:28.205Z,79.17
2023-04-20T23:19:51.105Z,79.26
2023-04-20T23:23:14.134Z,79.42
2023-04-20T23:26:38.988Z,79.66
2023-04-20T23:30:00.946Z,79.72
2023-04-20T23:33:22.540Z,79.62
2023-04-20T23:36:44.451Z,79.93
2023-04-20T23:40:10.513Z,80.01
2023-04-20T23:43:32.095Z,79.98
2023-04-20T23:46:53.937Z,80.41
2023-04-20T23:50:16.115Z,80.34
2023-04-20T23:53:39.066Z,80.22
2023-04-20T23:57:02.760Z,80.25
